sensor_id;sensor_type;location;lat;lon;timestamp;pressure;altitude;pressure_sealevel;temperature;humidity
68873;BME280;55907;50.806;12.882;2022-08-04T00:01:07;973.2;;;23.6;48.8
68873;BME280;55907;50.806;12.882;2022-08-04T00:04:11;973.2;;;23.6;49.0
68873;BME280;55907;50.806;12.882;2022-08-04T00:07:13;973.3;;;23.5;48.9
68873;BME280;55907;50.806;12.882;2022-08-04T00:10:11;973.2;;;23.5;49.6
68873;BME280;55907;50.806;12.882;2022-08-04T00:13:11;973.2;;;23.4;49.3
68873;BME280;55907;50.806;12.882;2022-08-04T00:16:13;973.2;;;23.4;49.9
68873;BME280;55907;50.806;12.882;2022-08-04T00:19:16;973.2;;;23.3;51.2
68873;BME280;55907;50.806;12.882;2022-08-04T00:22:18;973.2;;;23.2;51.7
68873;BME280;55907;50.806;12.882;2022-08-04T00:25:18;973.2;;;23.1;51.3
68873;BME280;55907;50.806;12.882;2022-08-04T00:28:18;973.2;;;23.0;50.7
68873;BME280;55907;50.806;12.882;2022-08-04T00:31:21;973.1;;;23.0;50.3
68873;BME280;55907;50.806;12.882;2022-08-04T00:34:22;973.1;;;23.0;50.1
68873;BME280;55907;50.806;12.882;2022-08-04T00:37:23;973.1;;;23.0;49.2
68873;BME280;55907;50.806;12.882;2022-08-04T00:40:30;973.1;;;23.1;50.7
68873;BME280;55907;50.806;12.882;2022-08-04T00:43:30;973.1;;;23.1;50.5
68873;BME280;55907;50.806;12.882;2022-08-04T00:46:39;973.2;;;23.1;49.7
68873;BME280;55907;50.806;12.882;2022-08-04T00:52:40;973.2;;;23.0;50.8
68873;BME280;55907;50.806;12.882;2022-08-04T00:55:43;973.2;;;23.0;49.9
68873;BME280;55907;50.806;12.882;2022-08-04T00:58:41;973.2;;;23.0;50.1
68873;BME280;55907;50.806;12.882;2022-08-04T01:01:43;973.2;;;22.9;51.3
68873;BME280;55907;50.806;12.882;2022-08-04T01:07:45;973.2;;;22.9;50.4
68873;BME280;55907;50.806;12.882;2022-08-04T01:10:47;973.2;;;22.9;52.4
68873;BME280;55907;50.806;12.882;2022-08-04T01:13:53;973.1;;;22.9;50.4
68873;BME280;55907;50.806;12.882;2022-08-04T01:16:48;973.2;;;22.8;51.0
68873;BME280;55907;50.806;12.882;2022-08-04T01:19:52;973.2;;;22.8;50.7
68873;BME280;55907;50.806;12.882;2022-08-04T01:29:00;973.2;;;22.5;51.1
68873;BME280;55907;50.806;12.882;2022-08-04T01:31:52;973.1;;;22.5;51.2
68873;BME280;55907;50.806;12.882;2022-08-04T01:34:50;973.2;;;22.5;51.3
68873;BME280;55907;50.806;12.882;2022-08-04T01:38:04;973.2;;;22.4;51.1
68873;BME280;55907;50.806;12.882;2022-08-04T01:40:53;973.2;;;22.4;51.0
68873;BME280;55907;50.806;12.882;2022-08-04T01:43:53;973.2;;;22.4;51.2
68873;BME280;55907;50.806;12.882;2022-08-04T01:46:54;973.2;;;22.3;51.3
68873;BME280;55907;50.806;12.882;2022-08-04T01:50:01;973.2;;;22.3;50.9
68873;BME280;55907;50.806;12.882;2022-08-04T01:52:57;973.2;;;22.3;51.2
68873;BME280;55907;50.806;12.882;2022-08-04T01:55:59;973.2;;;22.3;50.6
68873;BME280;55907;50.806;12.882;2022-08-04T01:59:02;973.1;;;22.3;51.2
68873;BME280;55907;50.806;12.882;2022-08-04T02:02:00;973.1;;;22.2;51.4
68873;BME280;55907;50.806;12.882;2022-08-04T02:05:02;973.1;;;22.2;51.3
68873;BME280;55907;50.806;12.882;2022-08-04T02:08:10;973.1;;;22.2;50.9
68873;BME280;55907;50.806;12.882;2022-08-04T02:11:11;973.1;;;22.2;51.1
68873;BME280;55907;50.806;12.882;2022-08-04T02:14:13;973.1;;;22.1;51.3
68873;BME280;55907;50.806;12.882;2022-08-04T02:17:10;973.1;;;22.1;50.9
68873;BME280;55907;50.806;12.882;2022-08-04T02:23:14;973.1;;;22.2;50.6
68873;BME280;55907;50.806;12.882;2022-08-04T02:26:16;973.1;;;22.1;50.5
68873;BME280;55907;50.806;12.882;2022-08-04T02:29:16;973.1;;;22.1;50.5
68873;BME280;55907;50.806;12.882;2022-08-04T02:32:20;973.0;;;22.1;50.8
68873;BME280;55907;50.806;12.882;2022-08-04T02:35:22;973.0;;;22.1;50.9
68873;BME280;55907;50.806;12.882;2022-08-04T02:38:27;973.0;;;22.1;51.0
68873;BME280;55907;50.806;12.882;2022-08-04T02:41:20;972.9;;;22.0;51.4
68873;BME280;55907;50.806;12.882;2022-08-04T02:44:21;973.0;;;22.0;51.0
68873;BME280;55907;50.806;12.882;2022-08-04T02:47:23;972.9;;;22.0;51.2
68873;BME280;55907;50.806;12.882;2022-08-04T02:50:24;972.9;;;22.0;51.0
68873;BME280;55907;50.806;12.882;2022-08-04T02:53:25;972.9;;;22.0;50.8
68873;BME280;55907;50.806;12.882;2022-08-04T02:56:27;972.9;;;22.0;51.1
68873;BME280;55907;50.806;12.882;2022-08-04T02:59:29;972.9;;;21.9;51.0
68873;BME280;55907;50.806;12.882;2022-08-04T03:02:34;972.9;;;21.9;51.2
68873;BME280;55907;50.806;12.882;2022-08-04T03:05:35;972.9;;;21.8;51.3
68873;BME280;55907;50.806;12.882;2022-08-04T03:08:48;972.9;;;21.8;51.4
68873;BME280;55907;50.806;12.882;2022-08-04T03:11:43;972.9;;;21.8;51.7
68873;BME280;55907;50.806;12.882;2022-08-04T03:14:51;972.9;;;21.8;51.8
68873;BME280;55907;50.806;12.882;2022-08-04T03:17:55;973.0;;;21.8;51.7
68873;BME280;55907;50.806;12.882;2022-08-04T03:20:52;973.0;;;21.7;51.9
68873;BME280;55907;50.806;12.882;2022-08-04T03:23:53;973.0;;;21.7;51.9
68873;BME280;55907;50.806;12.882;2022-08-04T03:26:49;973.0;;;21.7;51.9
68873;BME280;55907;50.806;12.882;2022-08-04T03:29:55;973.0;;;21.7;51.9
68873;BME280;55907;50.806;12.882;2022-08-04T03:38:56;973.0;;;21.7;52.4
68873;BME280;55907;50.806;12.882;2022-08-04T03:42:02;973.0;;;21.6;52.7
68873;BME280;55907;50.806;12.882;2022-08-04T03:50:57;973.0;;;21.6;52.3
68873;BME280;55907;50.806;12.882;2022-08-04T03:54:02;973.0;;;21.6;52.4
68873;BME280;55907;50.806;12.882;2022-08-04T03:57:10;973.0;;;21.6;52.3
68873;BME280;55907;50.806;12.882;2022-08-04T04:00:03;973.0;;;21.6;52.2
68873;BME280;55907;50.806;12.882;2022-08-04T04:09:05;973.0;;;21.8;52.3
68873;BME280;55907;50.806;12.882;2022-08-04T04:12:13;973.0;;;21.9;52.0
68873;BME280;55907;50.806;12.882;2022-08-04T04:15:13;973.0;;;21.9;52.7
68873;BME280;55907;50.806;12.882;2022-08-04T04:18:15;973.0;;;22.0;52.1
68873;BME280;55907;50.806;12.882;2022-08-04T04:21:19;973.0;;;22.0;51.9
68873;BME280;55907;50.806;12.882;2022-08-04T04:24:21;973.0;;;22.0;51.8
68873;BME280;55907;50.806;12.882;2022-08-04T04:27:14;973.0;;;22.1;52.0
68873;BME280;55907;50.806;12.882;2022-08-04T04:30:11;973.0;;;22.2;51.6
68873;BME280;55907;50.806;12.882;2022-08-04T04:33:25;973.1;;;22.3;51.4
68873;BME280;55907;50.806;12.882;2022-08-04T04:36:14;973.1;;;22.4;51.4
68873;BME280;55907;50.806;12.882;2022-08-04T04:39:19;973.1;;;22.5;50.5
68873;BME280;55907;50.806;12.882;2022-08-04T04:42:28;973.2;;;22.6;51.9
68873;BME280;55907;50.806;12.882;2022-08-04T04:45:21;973.2;;;22.7;51.1
68873;BME280;55907;50.806;12.882;2022-08-04T04:48:28;973.2;;;22.8;50.3
68873;BME280;55907;50.806;12.882;2022-08-04T04:51:22;973.2;;;23.0;50.2
68873;BME280;55907;50.806;12.882;2022-08-04T05:00:25;973.3;;;24.9;45.9
68873;BME280;55907;50.806;12.882;2022-08-04T05:03:34;973.2;;;26.2;42.5
68873;BME280;55907;50.806;12.882;2022-08-04T05:06:38;973.3;;;27.1;40.5
68873;BME280;55907;50.806;12.882;2022-08-04T05:09:31;973.3;;;27.3;39.5
68873;BME280;55907;50.806;12.882;2022-08-04T05:12:41;973.3;;;27.3;40.4
68873;BME280;55907;50.806;12.882;2022-08-04T05:15:31;973.3;;;27.1;40.2
68873;BME280;55907;50.806;12.882;2022-08-04T05:18:32;973.3;;;27.0;40.9
68873;BME280;55907;50.806;12.882;2022-08-04T05:21:36;973.3;;;27.2;40.2
68873;BME280;55907;50.806;12.882;2022-08-04T05:27:37;973.3;;;27.8;39.8
68873;BME280;55907;50.806;12.882;2022-08-04T05:30:38;973.3;;;27.9;39.6
68873;BME280;55907;50.806;12.882;2022-08-04T05:33:39;973.3;;;27.9;40.4
68873;BME280;55907;50.806;12.882;2022-08-04T05:36:41;973.3;;;27.9;40.4
68873;BME280;55907;50.806;12.882;2022-08-04T05:39:42;973.3;;;27.9;40.5
68873;BME280;55907;50.806;12.882;2022-08-04T05:42:41;973.3;;;27.9;40.6
68873;BME280;55907;50.806;12.882;2022-08-04T05:45:43;973.3;;;27.9;40.6
68873;BME280;55907;50.806;12.882;2022-08-04T05:48:44;973.3;;;27.9;40.6
68873;BME280;55907;50.806;12.882;2022-08-04T05:51:45;973.3;;;27.9;40.8
68873;BME280;55907;50.806;12.882;2022-08-04T05:54:46;973.3;;;27.9;41.3
68873;BME280;55907;50.806;12.882;2022-08-04T05:57:48;973.3;;;27.9;41.5
68873;BME280;55907;50.806;12.882;2022-08-04T06:00:50;973.3;;;27.8;41.7
68873;BME280;55907;50.806;12.882;2022-08-04T06:03:51;973.3;;;27.7;41.8
68873;BME280;55907;50.806;12.882;2022-08-04T06:09:53;973.3;;;27.6;41.1
68873;BME280;55907;50.806;12.882;2022-08-04T06:12:57;973.4;;;27.7;40.8
68873;BME280;55907;50.806;12.882;2022-08-04T06:15:58;973.4;;;27.8;40.6
68873;BME280;55907;50.806;12.882;2022-08-04T06:19:00;973.4;;;27.9;42.1
68873;BME280;55907;50.806;12.882;2022-08-04T06:22:02;973.4;;;27.9;41.2
68873;BME280;55907;50.806;12.882;2022-08-04T06:25:02;973.4;;;27.9;41.3
68873;BME280;55907;50.806;12.882;2022-08-04T06:28:04;973.5;;;27.9;41.4
68873;BME280;55907;50.806;12.882;2022-08-04T06:31:03;973.5;;;27.9;41.6
68873;BME280;55907;50.806;12.882;2022-08-04T06:34:04;973.4;;;27.9;41.6
68873;BME280;55907;50.806;12.882;2022-08-04T06:37:06;973.4;;;28.0;41.7
68873;BME280;55907;50.806;12.882;2022-08-04T06:40:09;973.5;;;28.0;41.4
68873;BME280;55907;50.806;12.882;2022-08-04T06:43:08;973.5;;;28.1;41.4
68873;BME280;55907;50.806;12.882;2022-08-04T06:46:09;973.5;;;28.2;41.2
68873;BME280;55907;50.806;12.882;2022-08-04T06:49:12;973.5;;;28.4;40.8
68873;BME280;55907;50.806;12.882;2022-08-04T06:52:12;973.5;;;28.5;40.7
68873;BME280;55907;50.806;12.882;2022-08-04T06:55:13;973.5;;;28.5;40.4
68873;BME280;55907;50.806;12.882;2022-08-04T06:58:16;973.5;;;28.6;40.4
68873;BME280;55907;50.806;12.882;2022-08-04T07:01:18;973.4;;;28.8;40.6
68873;BME280;55907;50.806;12.882;2022-08-04T07:04:17;973.4;;;28.9;40.5
68873;BME280;55907;50.806;12.882;2022-08-04T07:07:19;973.5;;;29.1;40.5
68873;BME280;55907;50.806;12.882;2022-08-04T07:10:21;973.5;;;29.3;39.7
68873;BME280;55907;50.806;12.882;2022-08-04T07:13:22;973.5;;;29.5;39.0
68873;BME280;55907;50.806;12.882;2022-08-04T07:16:24;973.5;;;29.7;38.7
68873;BME280;55907;50.806;12.882;2022-08-04T07:19:24;973.5;;;29.9;38.5
68873;BME280;55907;50.806;12.882;2022-08-04T07:22:26;973.5;;;30.1;38.1
68873;BME280;55907;50.806;12.882;2022-08-04T07:25:27;973.4;;;30.2;37.8
68873;BME280;55907;50.806;12.882;2022-08-04T07:28:28;973.5;;;30.4;36.7
68873;BME280;55907;50.806;12.882;2022-08-04T07:31:30;973.3;;;30.7;36.8
68873;BME280;55907;50.806;12.882;2022-08-04T07:34:31;973.4;;;30.9;36.5
68873;BME280;55907;50.806;12.882;2022-08-04T07:37:32;973.4;;;30.9;37.4
68873;BME280;55907;50.806;12.882;2022-08-04T07:40:34;973.4;;;31.0;36.1
68873;BME280;55907;50.806;12.882;2022-08-04T07:43:35;973.3;;;31.0;35.9
68873;BME280;55907;50.806;12.882;2022-08-04T07:46:36;973.4;;;31.1;36.4
68873;BME280;55907;50.806;12.882;2022-08-04T07:49:37;973.3;;;31.1;35.2
68873;BME280;55907;50.806;12.882;2022-08-04T07:52:39;973.3;;;31.1;33.5
68873;BME280;55907;50.806;12.882;2022-08-04T07:55:40;973.3;;;31.1;32.8
68873;BME280;55907;50.806;12.882;2022-08-04T07:58:41;973.3;;;31.4;32.6
68873;BME280;55907;50.806;12.882;2022-08-04T08:01:43;973.3;;;31.5;32.6
68873;BME280;55907;50.806;12.882;2022-08-04T08:04:45;973.3;;;31.8;32.9
68873;BME280;55907;50.806;12.882;2022-08-04T08:07:45;973.2;;;31.9;33.0
68873;BME280;55907;50.806;12.882;2022-08-04T08:10:47;973.2;;;31.8;31.5
68873;BME280;55907;50.806;12.882;2022-08-04T08:13:48;973.2;;;31.9;30.6
68873;BME280;55907;50.806;12.882;2022-08-04T08:16:49;973.2;;;31.9;30.9
68873;BME280;55907;50.806;12.882;2022-08-04T08:19:50;973.2;;;31.9;30.3
68873;BME280;55907;50.806;12.882;2022-08-04T08:22:52;973.1;;;32.0;30.8
68873;BME280;55907;50.806;12.882;2022-08-04T08:25:53;973.1;;;32.2;31.0
68873;BME280;55907;50.806;12.882;2022-08-04T08:28:54;973.1;;;32.2;30.9
68873;BME280;55907;50.806;12.882;2022-08-04T08:31:56;973.1;;;32.3;30.2
68873;BME280;55907;50.806;12.882;2022-08-04T08:34:57;973.2;;;32.4;29.7
68873;BME280;55907;50.806;12.882;2022-08-04T08:38:02;973.2;;;32.5;28.8
68873;BME280;55907;50.806;12.882;2022-08-04T08:44:09;973.2;;;32.9;28.8
68873;BME280;55907;50.806;12.882;2022-08-04T08:47:08;973.2;;;33.1;28.1
68873;BME280;55907;50.806;12.882;2022-08-04T08:50:21;973.2;;;33.4;28.2
68873;BME280;55907;50.806;12.882;2022-08-04T08:53:19;973.2;;;33.9;27.7
68873;BME280;55907;50.806;12.882;2022-08-04T08:56:15;973.2;;;34.6;26.5
68873;BME280;55907;50.806;12.882;2022-08-04T08:59:25;973.3;;;35.5;25.2
68873;BME280;55907;50.806;12.882;2022-08-04T09:02:31;973.2;;;36.2;24.6
68873;BME280;55907;50.806;12.882;2022-08-04T09:05:20;973.2;;;37.0;23.3
68873;BME280;55907;50.806;12.882;2022-08-04T09:08:25;973.3;;;37.6;22.5
68873;BME280;55907;50.806;12.882;2022-08-04T09:11:15;973.3;;;38.1;20.4
68873;BME280;55907;50.806;12.882;2022-08-04T09:14:18;973.3;;;38.2;19.4
68873;BME280;55907;50.806;12.882;2022-08-04T09:17:20;973.3;;;38.9;19.5
68873;BME280;55907;50.806;12.882;2022-08-04T09:23:25;973.3;;;39.8;19.0
68873;BME280;55907;50.806;12.882;2022-08-04T09:26:26;973.3;;;40.2;18.6
68873;BME280;55907;50.806;12.882;2022-08-04T09:29:29;973.3;;;40.5;18.2
68873;BME280;55907;50.806;12.882;2022-08-04T09:32:26;973.3;;;40.7;17.1
68873;BME280;55907;50.806;12.882;2022-08-04T09:35:32;973.2;;;40.8;17.3
68873;BME280;55907;50.806;12.882;2022-08-04T09:38:28;973.2;;;40.6;17.3
68873;BME280;55907;50.806;12.882;2022-08-04T09:41:32;973.2;;;40.5;18.0
68873;BME280;55907;50.806;12.882;2022-08-04T09:44:33;973.2;;;40.4;17.1
68873;BME280;55907;50.806;12.882;2022-08-04T09:47:33;973.2;;;40.1;18.1
68873;BME280;55907;50.806;12.882;2022-08-04T09:50:33;973.2;;;39.9;18.1
68873;BME280;55907;50.806;12.882;2022-08-04T09:53:40;973.3;;;40.0;18.3
68873;BME280;55907;50.806;12.882;2022-08-04T09:56:37;973.2;;;40.1;17.1
68873;BME280;55907;50.806;12.882;2022-08-04T09:59:40;973.2;;;40.2;17.5
68873;BME280;55907;50.806;12.882;2022-08-04T10:02:38;973.2;;;40.1;17.7
68873;BME280;55907;50.806;12.882;2022-08-04T10:05:46;973.2;;;40.0;16.9
68873;BME280;55907;50.806;12.882;2022-08-04T10:08:53;973.2;;;39.9;16.8
68873;BME280;55907;50.806;12.882;2022-08-04T10:11:52;973.2;;;39.7;17.5
68873;BME280;55907;50.806;12.882;2022-08-04T10:14:47;973.1;;;39.7;18.0
68873;BME280;55907;50.806;12.882;2022-08-04T10:17:50;973.1;;;40.1;18.0
68873;BME280;55907;50.806;12.882;2022-08-04T10:20:50;973.1;;;40.2;17.8
68873;BME280;55907;50.806;12.882;2022-08-04T10:23:51;973.0;;;40.0;17.5
68873;BME280;55907;50.806;12.882;2022-08-04T10:26:50;973.0;;;39.8;18.1
68873;BME280;55907;50.806;12.882;2022-08-04T10:29:47;973.0;;;39.7;18.2
68873;BME280;55907;50.806;12.882;2022-08-04T10:32:52;973.0;;;39.8;18.3
68873;BME280;55907;50.806;12.882;2022-08-04T10:35:53;973.0;;;39.6;18.3
68873;BME280;55907;50.806;12.882;2022-08-04T10:38:56;973.0;;;39.6;19.0
68873;BME280;55907;50.806;12.882;2022-08-04T10:41:59;973.0;;;39.1;18.2
68873;BME280;55907;50.806;12.882;2022-08-04T10:45:04;972.9;;;38.6;19.3
68873;BME280;55907;50.806;12.882;2022-08-04T10:51:01;973.0;;;38.7;19.4
68873;BME280;55907;50.806;12.882;2022-08-04T10:54:00;972.9;;;38.5;19.3
68873;BME280;55907;50.806;12.882;2022-08-04T10:57:03;972.9;;;38.0;20.6
68873;BME280;55907;50.806;12.882;2022-08-04T11:00:04;972.8;;;37.6;20.8
68873;BME280;55907;50.806;12.882;2022-08-04T11:03:06;972.8;;;37.2;21.7
68873;BME280;55907;50.806;12.882;2022-08-04T11:06:04;972.8;;;36.8;21.6
68873;BME280;55907;50.806;12.882;2022-08-04T11:09:05;972.7;;;36.8;21.6
68873;BME280;55907;50.806;12.882;2022-08-04T11:12:12;972.7;;;37.1;21.8
68873;BME280;55907;50.806;12.882;2022-08-04T11:15:10;972.7;;;37.7;21.4
68873;BME280;55907;50.806;12.882;2022-08-04T11:18:12;972.7;;;37.9;20.5
68873;BME280;55907;50.806;12.882;2022-08-04T11:21:11;972.7;;;37.8;20.5
68873;BME280;55907;50.806;12.882;2022-08-04T11:24:15;972.8;;;37.2;20.8
68873;BME280;55907;50.806;12.882;2022-08-04T11:27:14;972.7;;;36.7;21.1
68873;BME280;55907;50.806;12.882;2022-08-04T11:30:14;972.7;;;36.2;22.1
68873;BME280;55907;50.806;12.882;2022-08-04T11:33:20;972.7;;;35.9;23.0
68873;BME280;55907;50.806;12.882;2022-08-04T11:36:19;972.7;;;35.7;23.5
68873;BME280;55907;50.806;12.882;2022-08-04T11:39:23;972.8;;;35.7;23.8
68873;BME280;55907;50.806;12.882;2022-08-04T11:42:20;972.7;;;35.7;22.4
68873;BME280;55907;50.806;12.882;2022-08-04T11:45:27;972.7;;;35.8;23.1
68873;BME280;55907;50.806;12.882;2022-08-04T11:48:26;972.7;;;36.2;24.3
68873;BME280;55907;50.806;12.882;2022-08-04T11:51:25;972.7;;;36.8;22.4
68873;BME280;55907;50.806;12.882;2022-08-04T11:57:25;972.7;;;36.9;21.9
68873;BME280;55907;50.806;12.882;2022-08-04T12:03:33;972.7;;;36.3;22.9
68873;BME280;55907;50.806;12.882;2022-08-04T12:06:34;972.7;;;36.2;22.8
68873;BME280;55907;50.806;12.882;2022-08-04T12:09:38;972.7;;;36.2;22.5
68873;BME280;55907;50.806;12.882;2022-08-04T12:12:38;972.7;;;36.2;23.2
68873;BME280;55907;50.806;12.882;2022-08-04T12:15:36;972.7;;;36.1;23.8
68873;BME280;55907;50.806;12.882;2022-08-04T12:18:37;972.6;;;36.0;23.1
68873;BME280;55907;50.806;12.882;2022-08-04T12:21:39;972.6;;;35.9;22.4
68873;BME280;55907;50.806;12.882;2022-08-04T12:24:40;972.6;;;35.9;23.0
68873;BME280;55907;50.806;12.882;2022-08-04T12:27:45;972.6;;;35.9;23.6
68873;BME280;55907;50.806;12.882;2022-08-04T12:30:44;972.5;;;35.7;23.7
68873;BME280;55907;50.806;12.882;2022-08-04T12:33:45;972.5;;;35.7;23.8
68873;BME280;55907;50.806;12.882;2022-08-04T12:36:47;972.4;;;35.6;23.7
68873;BME280;55907;50.806;12.882;2022-08-04T12:39:46;972.4;;;35.5;24.1
68873;BME280;55907;50.806;12.882;2022-08-04T12:42:52;972.4;;;35.9;23.2
68873;BME280;55907;50.806;12.882;2022-08-04T12:48:49;972.4;;;35.7;23.2
68873;BME280;55907;50.806;12.882;2022-08-04T12:51:49;972.4;;;35.8;24.2
68873;BME280;55907;50.806;12.882;2022-08-04T12:54:53;972.3;;;35.7;23.2
68873;BME280;55907;50.806;12.882;2022-08-04T12:57:53;972.3;;;35.6;23.9
68873;BME280;55907;50.806;12.882;2022-08-04T13:00:57;972.3;;;35.5;24.3
68873;BME280;55907;50.806;12.882;2022-08-04T13:03:56;972.3;;;35.6;24.8
68873;BME280;55907;50.806;12.882;2022-08-04T13:06:59;972.2;;;35.9;23.0
68873;BME280;55907;50.806;12.882;2022-08-04T13:09:59;972.1;;;36.1;23.4
68873;BME280;55907;50.806;12.882;2022-08-04T13:12:59;972.1;;;36.3;22.4
68873;BME280;55907;50.806;12.882;2022-08-04T13:16:01;972.1;;;36.3;22.8
68873;BME280;55907;50.806;12.882;2022-08-04T13:19:01;972.1;;;36.2;23.0
68873;BME280;55907;50.806;12.882;2022-08-04T13:22:03;972.1;;;35.9;22.7
68873;BME280;55907;50.806;12.882;2022-08-04T13:25:04;972.1;;;35.4;23.2
68873;BME280;55907;50.806;12.882;2022-08-04T13:28:07;972.1;;;35.2;23.6
68873;BME280;55907;50.806;12.882;2022-08-04T13:31:07;972.0;;;35.1;24.0
68873;BME280;55907;50.806;12.882;2022-08-04T13:34:08;972.0;;;35.0;24.0
68873;BME280;55907;50.806;12.882;2022-08-04T13:37:10;972.0;;;34.9;24.7
68873;BME280;55907;50.806;12.882;2022-08-04T13:40:12;972.0;;;34.8;24.7
68873;BME280;55907;50.806;12.882;2022-08-04T13:43:22;971.9;;;35.0;24.7
68873;BME280;55907;50.806;12.882;2022-08-04T13:46:17;971.9;;;34.9;25.6
68873;BME280;55907;50.806;12.882;2022-08-04T13:49:16;971.9;;;34.7;24.3
68873;BME280;55907;50.806;12.882;2022-08-04T13:52:16;971.9;;;34.5;25.5
68873;BME280;55907;50.806;12.882;2022-08-04T13:55:18;971.9;;;34.4;24.5
68873;BME280;55907;50.806;12.882;2022-08-04T13:58:22;971.8;;;34.5;24.6
68873;BME280;55907;50.806;12.882;2022-08-04T14:01:22;971.8;;;34.5;24.2
68873;BME280;55907;50.806;12.882;2022-08-04T14:04:23;971.8;;;35.0;23.6
68873;BME280;55907;50.806;12.882;2022-08-04T14:07:24;971.8;;;35.4;22.5
68873;BME280;55907;50.806;12.882;2022-08-04T14:10:24;971.7;;;35.7;23.3
68873;BME280;55907;50.806;12.882;2022-08-04T14:13:28;971.7;;;35.5;23.1
68873;BME280;55907;50.806;12.882;2022-08-04T14:16:26;971.7;;;35.1;23.3
68873;BME280;55907;50.806;12.882;2022-08-04T14:22:31;971.7;;;34.8;24.2
68873;BME280;55907;50.806;12.882;2022-08-04T14:25:30;971.6;;;34.5;24.3
68873;BME280;55907;50.806;12.882;2022-08-04T14:28:31;971.6;;;34.6;24.4
68873;BME280;55907;50.806;12.882;2022-08-04T14:31:33;971.5;;;34.6;23.7
68873;BME280;55907;50.806;12.882;2022-08-04T14:37:35;971.5;;;34.3;24.3
68873;BME280;55907;50.806;12.882;2022-08-04T14:40:40;971.5;;;34.2;24.1
68873;BME280;55907;50.806;12.882;2022-08-04T14:43:41;971.5;;;34.6;24.4
68873;BME280;55907;50.806;12.882;2022-08-04T14:46:49;971.5;;;35.1;24.1
68873;BME280;55907;50.806;12.882;2022-08-04T14:49:54;971.5;;;35.2;23.6
68873;BME280;55907;50.806;12.882;2022-08-04T14:52:42;971.5;;;35.2;23.8
68873;BME280;55907;50.806;12.882;2022-08-04T14:55:45;971.5;;;35.3;23.1
68873;BME280;55907;50.806;12.882;2022-08-04T14:58:45;971.5;;;35.5;23.1
68873;BME280;55907;50.806;12.882;2022-08-04T15:01:48;971.4;;;35.6;23.0
68873;BME280;55907;50.806;12.882;2022-08-04T15:04:48;971.4;;;35.7;23.0
68873;BME280;55907;50.806;12.882;2022-08-04T15:07:49;971.4;;;35.8;23.3
68873;BME280;55907;50.806;12.882;2022-08-04T15:10:50;971.4;;;35.8;23.5
68873;BME280;55907;50.806;12.882;2022-08-04T15:13:53;971.4;;;35.7;22.9
68873;BME280;55907;50.806;12.882;2022-08-04T15:16:53;971.3;;;35.6;23.0
68873;BME280;55907;50.806;12.882;2022-08-04T15:19:54;971.3;;;35.6;23.2
68873;BME280;55907;50.806;12.882;2022-08-04T15:22:55;971.3;;;35.6;23.3
68873;BME280;55907;50.806;12.882;2022-08-04T15:25:59;971.3;;;35.6;23.3
68873;BME280;55907;50.806;12.882;2022-08-04T15:29:01;971.3;;;35.5;23.0
68873;BME280;55907;50.806;12.882;2022-08-04T15:32:01;971.2;;;35.5;23.0
68873;BME280;55907;50.806;12.882;2022-08-04T15:35:02;971.2;;;35.6;23.3
68873;BME280;55907;50.806;12.882;2022-08-04T15:38:05;971.1;;;35.6;22.7
68873;BME280;55907;50.806;12.882;2022-08-04T15:41:05;971.2;;;35.6;22.9
68873;BME280;55907;50.806;12.882;2022-08-04T15:44:18;971.2;;;35.7;22.6
68873;BME280;55907;50.806;12.882;2022-08-04T15:47:10;971.1;;;35.7;23.0
68873;BME280;55907;50.806;12.882;2022-08-04T15:50:09;971.1;;;35.6;23.0
68873;BME280;55907;50.806;12.882;2022-08-04T15:53:08;971.0;;;35.4;22.8
68873;BME280;55907;50.806;12.882;2022-08-04T15:59:11;971.1;;;35.2;23.4
68873;BME280;55907;50.806;12.882;2022-08-04T16:05:32;971.0;;;35.0;22.7
68873;BME280;55907;50.806;12.882;2022-08-04T16:08:15;971.1;;;35.0;23.0
68873;BME280;55907;50.806;12.882;2022-08-04T16:14:32;971.0;;;34.9;23.1
68873;BME280;55907;50.806;12.882;2022-08-04T16:20:21;971.0;;;35.0;23.6
68873;BME280;55907;50.806;12.882;2022-08-04T16:23:39;971.0;;;34.9;23.1
68873;BME280;55907;50.806;12.882;2022-08-04T16:26:40;971.0;;;34.9;23.1
68873;BME280;55907;50.806;12.882;2022-08-04T16:29:26;971.0;;;34.8;23.4
68873;BME280;55907;50.806;12.882;2022-08-04T16:35:27;971.0;;;34.9;23.0
68873;BME280;55907;50.806;12.882;2022-08-04T16:38:28;970.9;;;35.0;22.9
68873;BME280;55907;50.806;12.882;2022-08-04T16:41:38;970.9;;;35.1;23.3
68873;BME280;55907;50.806;12.882;2022-08-04T16:44:32;970.9;;;35.0;23.2
68873;BME280;55907;50.806;12.882;2022-08-04T16:50:44;970.9;;;35.0;23.3
68873;BME280;55907;50.806;12.882;2022-08-04T16:53:36;970.8;;;34.8;23.8
68873;BME280;55907;50.806;12.882;2022-08-04T16:56:36;970.8;;;34.6;23.4
68873;BME280;55907;50.806;12.882;2022-08-04T16:59:37;970.8;;;34.5;23.7
68873;BME280;55907;50.806;12.882;2022-08-04T17:02:39;970.8;;;34.5;24.1
68873;BME280;55907;50.806;12.882;2022-08-04T17:05:40;970.8;;;34.5;24.5
68873;BME280;55907;50.806;12.882;2022-08-04T17:08:42;970.8;;;34.5;24.4
68873;BME280;55907;50.806;12.882;2022-08-04T17:11:44;970.8;;;34.5;24.8
68873;BME280;55907;50.806;12.882;2022-08-04T17:14:44;970.8;;;34.4;24.9
68873;BME280;55907;50.806;12.882;2022-08-04T17:17:45;970.7;;;34.3;24.5
68873;BME280;55907;50.806;12.882;2022-08-04T17:20:47;970.7;;;34.2;24.9
68873;BME280;55907;50.806;12.882;2022-08-04T17:23:49;970.7;;;34.0;24.6
68873;BME280;55907;50.806;12.882;2022-08-04T17:26:49;970.7;;;33.9;25.1
68873;BME280;55907;50.806;12.882;2022-08-04T17:29:50;970.7;;;33.8;25.0
68873;BME280;55907;50.806;12.882;2022-08-04T17:32:52;970.7;;;33.7;25.2
68873;BME280;55907;50.806;12.882;2022-08-04T17:35:56;970.7;;;33.7;25.6
68873;BME280;55907;50.806;12.882;2022-08-04T17:38:57;970.7;;;33.5;25.2
68873;BME280;55907;50.806;12.882;2022-08-04T17:41:56;970.7;;;33.4;25.7
68873;BME280;55907;50.806;12.882;2022-08-04T17:45:06;970.7;;;33.2;26.5
68873;BME280;55907;50.806;12.882;2022-08-04T17:47:59;970.6;;;33.0;26.4
68873;BME280;55907;50.806;12.882;2022-08-04T17:51:11;970.7;;;32.8;26.6
68873;BME280;55907;50.806;12.882;2022-08-04T17:54:02;970.7;;;32.7;27.0
68873;BME280;55907;50.806;12.882;2022-08-04T17:57:12;970.7;;;32.6;26.7
68873;BME280;55907;50.806;12.882;2022-08-04T18:00:05;970.7;;;32.5;26.9
68873;BME280;55907;50.806;12.882;2022-08-04T18:03:05;970.7;;;32.5;27.9
68873;BME280;55907;50.806;12.882;2022-08-04T18:06:10;970.7;;;32.3;27.8
68873;BME280;55907;50.806;12.882;2022-08-04T18:09:08;970.7;;;32.2;27.5
68873;BME280;55907;50.806;12.882;2022-08-04T18:12:11;970.7;;;32.2;27.1
68873;BME280;55907;50.806;12.882;2022-08-04T18:15:20;970.7;;;32.3;27.6
68873;BME280;55907;50.806;12.882;2022-08-04T18:18:17;970.6;;;32.2;27.2
68873;BME280;55907;50.806;12.882;2022-08-04T18:21:13;970.6;;;32.2;26.9